sensor_id;sensor_type;location;lat;lon;timestamp;temperature;humidity
11140;DHT22;5624;49.388;11.350;2023-08-20T00:01:06;22.30;75.20
11140;DHT22;5624;49.388;11.350;2023-08-20T00:03:33;22.20;75.80
11140;DHT22;5624;49.388;11.350;2023-08-20T00:05:59;22.10;76.80
11140;DHT22;5624;49.388;11.350;2023-08-20T00:08:25;22.00;77.60
11140;DHT22;5624;49.388;11.350;2023-08-20T00:10:50;21.90;78.00
11140;DHT22;5624;49.388;11.350;2023-08-20T00:13:16;21.80;78.60
11140;DHT22;5624;49.388;11.350;2023-08-20T00:15:41;21.70;79.00
11140;DHT22;5624;49.388;11.350;2023-08-20T00:18:07;21.60;79.60
11140;DHT22;5624;49.388;11.350;2023-08-20T00:20:33;21.50;80.30
11140;DHT22;5624;49.388;11.350;2023-08-20T00:22:59;21.50;80.90
11140;DHT22;5624;49.388;11.350;2023-08-20T00:25:25;21.40;81.50
11140;DHT22;5624;49.388;11.350;2023-08-20T00:27:51;21.30;81.70
11140;DHT22;5624;49.388;11.350;2023-08-20T00:30:16;21.30;82.10
11140;DHT22;5624;49.388;11.350;2023-08-20T00:32:42;21.30;82.60
11140;DHT22;5624;49.388;11.350;2023-08-20T00:35:07;21.30;83.50
11140;DHT22;5624;49.388;11.350;2023-08-20T00:37:33;21.30;83.80
11140;DHT22;5624;49.388;11.350;2023-08-20T00:39:58;21.20;84.00
11140;DHT22;5624;49.388;11.350;2023-08-20T00:42:25;21.20;84.10
11140;DHT22;5624;49.388;11.350;2023-08-20T00:44:53;21.10;84.30
11140;DHT22;5624;49.388;11.350;2023-08-20T00:47:19;21.10;84.20
11140;DHT22;5624;49.388;11.350;2023-08-20T00:49:46;21.10;84.20
11140;DHT22;5624;49.388;11.350;2023-08-20T00:52:14;21.00;84.50
11140;DHT22;5624;49.388;11.350;2023-08-20T00:54:41;21.00;84.40
11140;DHT22;5624;49.388;11.350;2023-08-20T00:57:09;21.10;84.60
11140;DHT22;5624;49.388;11.350;2023-08-20T00:59:34;21.10;84.30
11140;DHT22;5624;49.388;11.350;2023-08-20T01:02:00;21.10;83.70
11140;DHT22;5624;49.388;11.350;2023-08-20T01:04:27;21.10;83.60
11140;DHT22;5624;49.388;11.350;2023-08-20T01:12:24;21.20;83.10
11140;DHT22;5624;49.388;11.350;2023-08-20T01:14:51;21.20;83.60
11140;DHT22;5624;49.388;11.350;2023-08-20T01:17:16;21.20;84.00
11140;DHT22;5624;49.388;11.350;2023-08-20T01:19:42;21.30;83.90
11140;DHT22;5624;49.388;11.350;2023-08-20T01:27:58;21.30;83.70
11140;DHT22;5624;49.388;11.350;2023-08-20T01:30:28;21.30;83.30
11140;DHT22;5624;49.388;11.350;2023-08-20T01:32:55;21.30;83.40
11140;DHT22;5624;49.388;11.350;2023-08-20T01:35:24;21.20;83.80
11140;DHT22;5624;49.388;11.350;2023-08-20T01:37:51;21.30;84.00
11140;DHT22;5624;49.388;11.350;2023-08-20T01:40:17;21.30;83.70
11140;DHT22;5624;49.388;11.350;2023-08-20T01:42:43;21.40;83.10
11140;DHT22;5624;49.388;11.350;2023-08-20T01:45:09;21.50;82.70
11140;DHT22;5624;49.388;11.350;2023-08-20T01:47:34;21.40;82.30
11140;DHT22;5624;49.388;11.350;2023-08-20T01:50:00;21.40;82.20
11140;DHT22;5624;49.388;11.350;2023-08-20T01:52:26;21.50;82.00
11140;DHT22;5624;49.388;11.350;2023-08-20T01:54:52;21.50;81.80
11140;DHT22;5624;49.388;11.350;2023-08-20T01:57:18;21.50;81.60
11140;DHT22;5624;49.388;11.350;2023-08-20T01:59:43;21.60;80.90
11140;DHT22;5624;49.388;11.350;2023-08-20T02:02:09;21.60;80.30
11140;DHT22;5624;49.388;11.350;2023-08-20T02:04:34;21.60;80.10
11140;DHT22;5624;49.388;11.350;2023-08-20T02:07:00;21.60;80.10
11140;DHT22;5624;49.388;11.350;2023-08-20T02:09:26;21.60;80.30
11140;DHT22;5624;49.388;11.350;2023-08-20T02:11:51;21.70;79.70
11140;DHT22;5624;49.388;11.350;2023-08-20T02:14:17;21.70;79.90
11140;DHT22;5624;49.388;11.350;2023-08-20T02:16:43;21.70;79.40
11140;DHT22;5624;49.388;11.350;2023-08-20T02:19:09;21.70;79.60
11140;DHT22;5624;49.388;11.350;2023-08-20T02:21:34;21.70;80.00
11140;DHT22;5624;49.388;11.350;2023-08-20T02:24:00;21.70;80.10
11140;DHT22;5624;49.388;11.350;2023-08-20T02:26:25;21.70;80.50
11140;DHT22;5624;49.388;11.350;2023-08-20T02:28:51;21.60;81.10
11140;DHT22;5624;49.388;11.350;2023-08-20T02:31:17;21.60;81.40
11140;DHT22;5624;49.388;11.350;2023-08-20T02:33:42;21.50;81.80
11140;DHT22;5624;49.388;11.350;2023-08-20T02:36:08;21.50;81.90
11140;DHT22;5624;49.388;11.350;2023-08-20T02:38:33;21.50;82.10
11140;DHT22;5624;49.388;11.350;2023-08-20T02:40:59;21.50;81.30
11140;DHT22;5624;49.388;11.350;2023-08-20T02:43:25;21.50;81.50
11140;DHT22;5624;49.388;11.350;2023-08-20T02:45:51;21.50;81.50
11140;DHT22;5624;49.388;11.350;2023-08-20T02:48:18;21.50;81.60
11140;DHT22;5624;49.388;11.350;2023-08-20T02:50:43;21.50;81.90
11140;DHT22;5624;49.388;11.350;2023-08-20T02:53:09;21.50;82.00
11140;DHT22;5624;49.388;11.350;2023-08-20T02:55:35;21.50;81.80
11140;DHT22;5624;49.388;11.350;2023-08-20T02:58:01;21.50;82.00
11140;DHT22;5624;49.388;11.350;2023-08-20T03:00:28;21.50;81.80
11140;DHT22;5624;49.388;11.350;2023-08-20T03:02:54;21.40;81.90
11140;DHT22;5624;49.388;11.350;2023-08-20T03:05:20;21.40;82.10
11140;DHT22;5624;49.388;11.350;2023-08-20T03:07:46;21.40;82.10
11140;DHT22;5624;49.388;11.350;2023-08-20T03:10:12;21.40;82.10
11140;DHT22;5624;49.388;11.350;2023-08-20T03:12:37;21.30;82.50
11140;DHT22;5624;49.388;11.350;2023-08-20T03:15:03;21.30;82.60
11140;DHT22;5624;49.388;11.350;2023-08-20T03:17:28;21.20;83.10
11140;DHT22;5624;49.388;11.350;2023-08-20T03:19:56;21.20;83.20
11140;DHT22;5624;49.388;11.350;2023-08-20T03:22:22;21.30;82.70
11140;DHT22;5624;49.388;11.350;2023-08-20T03:24:48;21.30;83.10
11140;DHT22;5624;49.388;11.350;2023-08-20T03:27:13;21.20;83.40
11140;DHT22;5624;49.388;11.350;2023-08-20T03:29:39;21.10;83.70
11140;DHT22;5624;49.388;11.350;2023-08-20T03:32:05;21.20;84.00
11140;DHT22;5624;49.388;11.350;2023-08-20T03:34:30;21.10;84.50
11140;DHT22;5624;49.388;11.350;2023-08-20T03:36:56;21.10;84.80
11140;DHT22;5624;49.388;11.350;2023-08-20T03:39:21;21.00;85.00
11140;DHT22;5624;49.388;11.350;2023-08-20T03:41:47;20.90;85.60
11140;DHT22;5624;49.388;11.350;2023-08-20T03:44:12;20.90;86.10
11140;DHT22;5624;49.388;11.350;2023-08-20T03:46:38;20.80;86.40
11140;DHT22;5624;49.388;11.350;2023-08-20T03:49:03;20.70;86.70
11140;DHT22;5624;49.388;11.350;2023-08-20T03:51:30;20.60;86.90
11140;DHT22;5624;49.388;11.350;2023-08-20T03:53:55;20.70;86.50
11140;DHT22;5624;49.388;11.350;2023-08-20T03:56:21;20.80;85.50
11140;DHT22;5624;49.388;11.350;2023-08-20T03:58:47;20.80;85.00
11140;DHT22;5624;49.388;11.350;2023-08-20T04:01:12;20.90;84.80
11140;DHT22;5624;49.388;11.350;2023-08-20T04:03:38;20.90;85.00
11140;DHT22;5624;49.388;11.350;2023-08-20T04:06:03;20.80;85.00
11140;DHT22;5624;49.388;11.350;2023-08-20T04:08:29;20.80;85.40
11140;DHT22;5624;49.388;11.350;2023-08-20T04:10:55;20.80;85.30
11140;DHT22;5624;49.388;11.350;2023-08-20T04:13:20;20.70;85.50
11140;DHT22;5624;49.388;11.350;2023-08-20T04:15:46;20.70;85.40
11140;DHT22;5624;49.388;11.350;2023-08-20T04:18:12;20.70;85.20
11140;DHT22;5624;49.388;11.350;2023-08-20T04:20:37;20.70;84.90
11140;DHT22;5624;49.388;11.350;2023-08-20T04:23:03;20.80;84.30
11140;DHT22;5624;49.388;11.350;2023-08-20T04:25:29;20.80;83.70
11140;DHT22;5624;49.388;11.350;2023-08-20T04:27:54;20.90;83.30
11140;DHT22;5624;49.388;11.350;2023-08-20T04:30:20;20.90;82.70
11140;DHT22;5624;49.388;11.350;2023-08-20T04:32:45;20.90;82.00
11140;DHT22;5624;49.388;11.350;2023-08-20T04:35:11;21.00;82.00
11140;DHT22;5624;49.388;11.350;2023-08-20T04:37:36;21.00;82.20
11140;DHT22;5624;49.388;11.350;2023-08-20T04:40:03;21.00;82.90
11140;DHT22;5624;49.388;11.350;2023-08-20T04:42:33;21.00;82.40
11140;DHT22;5624;49.388;11.350;2023-08-20T04:44:58;21.10;82.10
11140;DHT22;5624;49.388;11.350;2023-08-20T04:47:24;21.10;81.40
11140;DHT22;5624;49.388;11.350;2023-08-20T04:49:50;21.20;81.30
11140;DHT22;5624;49.388;11.350;2023-08-20T04:52:15;21.30;80.70
11140;DHT22;5624;49.388;11.350;2023-08-20T04:54:41;21.30;80.40
11140;DHT22;5624;49.388;11.350;2023-08-20T04:57:06;21.40;80.50
11140;DHT22;5624;49.388;11.350;2023-08-20T04:59:32;21.50;80.60
11140;DHT22;5624;49.388;11.350;2023-08-20T05:01:57;21.50;80.30
11140;DHT22;5624;49.388;11.350;2023-08-20T05:04:23;21.60;79.70
11140;DHT22;5624;49.388;11.350;2023-08-20T05:06:48;21.60;80.10
11140;DHT22;5624;49.388;11.350;2023-08-20T05:09:14;21.60;78.70
11140;DHT22;5624;49.388;11.350;2023-08-20T05:11:41;21.60;77.60
11140;DHT22;5624;49.388;11.350;2023-08-20T05:14:06;21.70;78.00
11140;DHT22;5624;49.388;11.350;2023-08-20T05:16:32;21.70;78.00
11140;DHT22;5624;49.388;11.350;2023-08-20T05:18:57;21.70;78.10
11140;DHT22;5624;49.388;11.350;2023-08-20T05:21:23;21.90;78.30
11140;DHT22;5624;49.388;11.350;2023-08-20T05:23:48;21.90;78.30
11140;DHT22;5624;49.388;11.350;2023-08-20T05:26:14;21.90;77.90
11140;DHT22;5624;49.388;11.350;2023-08-20T05:28:39;22.00;78.00
11140;DHT22;5624;49.388;11.350;2023-08-20T05:31:05;22.00;78.70
11140;DHT22;5624;49.388;11.350;2023-08-20T05:33:30;22.10;77.80
11140;DHT22;5624;49.388;11.350;2023-08-20T05:35:56;22.20;77.40
11140;DHT22;5624;49.388;11.350;2023-08-20T05:38:21;22.30;76.20
11140;DHT22;5624;49.388;11.350;2023-08-20T05:40:47;22.30;76.20
11140;DHT22;5624;49.388;11.350;2023-08-20T05:43:12;22.40;76.00
11140;DHT22;5624;49.388;11.350;2023-08-20T05:45:38;22.50;77.00
11140;DHT22;5624;49.388;11.350;2023-08-20T05:48:04;22.60;75.60
11140;DHT22;5624;49.388;11.350;2023-08-20T05:50:29;22.60;75.90
11140;DHT22;5624;49.388;11.350;2023-08-20T05:52:55;22.70;74.90
11140;DHT22;5624;49.388;11.350;2023-08-20T05:55:21;23.10;72.80
11140;DHT22;5624;49.388;11.350;2023-08-20T05:57:46;23.80;70.30
11140;DHT22;5624;49.388;11.350;2023-08-20T06:00:12;24.20;69.30
11140;DHT22;5624;49.388;11.350;2023-08-20T06:02:37;24.30;67.90
11140;DHT22;5624;49.388;11.350;2023-08-20T06:05:04;24.30;67.40
11140;DHT22;5624;49.388;11.350;2023-08-20T06:07:33;24.10;67.80
11140;DHT22;5624;49.388;11.350;2023-08-20T06:09:59;24.10;67.70
11140;DHT22;5624;49.388;11.350;2023-08-20T06:12:24;24.10;67.60
11140;DHT22;5624;49.388;11.350;2023-08-20T06:14:50;24.10;66.50
11140;DHT22;5624;49.388;11.350;2023-08-20T06:17:15;24.00;67.00
11140;DHT22;5624;49.388;11.350;2023-08-20T06:19:41;24.20;68.30
11140;DHT22;5624;49.388;11.350;2023-08-20T06:22:07;24.30;67.00
11140;DHT22;5624;49.388;11.350;2023-08-20T06:24:32;24.50;66.70
11140;DHT22;5624;49.388;11.350;2023-08-20T06:26:58;24.50;66.40
11140;DHT22;5624;49.388;11.350;2023-08-20T06:29:24;24.70;65.60
11140;DHT22;5624;49.388;11.350;2023-08-20T06:31:49;24.80;63.50
11140;DHT22;5624;49.388;11.350;2023-08-20T06:34:15;24.90;62.40
11140;DHT22;5624;49.388;11.350;2023-08-20T06:36:41;25.10;62.10
11140;DHT22;5624;49.388;11.350;2023-08-20T06:39:06;25.20;61.40
11140;DHT22;5624;49.388;11.350;2023-08-20T06:41:32;25.40;60.30
11140;DHT22;5624;49.388;11.350;2023-08-20T06:43:58;25.60;60.50
11140;DHT22;5624;49.388;11.350;2023-08-20T06:46:23;26.00;59.80
11140;DHT22;5624;49.388;11.350;2023-08-20T06:48:49;26.30;58.80
11140;DHT22;5624;49.388;11.350;2023-08-20T06:51:14;26.80;59.00
11140;DHT22;5624;49.388;11.350;2023-08-20T06:53:41;27.40;55.80
11140;DHT22;5624;49.388;11.350;2023-08-20T06:56:08;27.90;55.10
11140;DHT22;5624;49.388;11.350;2023-08-20T06:58:34;28.20;54.90
11140;DHT22;5624;49.388;11.350;2023-08-20T07:01:00;28.60;53.90
11140;DHT22;5624;49.388;11.350;2023-08-20T07:03:42;29.00;51.70
11140;DHT22;5624;49.388;11.350;2023-08-20T07:06:09;29.20;52.20
11140;DHT22;5624;49.388;11.350;2023-08-20T07:08:35;29.70;50.40
11140;DHT22;5624;49.388;11.350;2023-08-20T07:11:01;29.80;51.10
11140;DHT22;5624;49.388;11.350;2023-08-20T07:13:27;30.40;51.70
11140;DHT22;5624;49.388;11.350;2023-08-20T07:15:54;30.90;48.20
11140;DHT22;5624;49.388;11.350;2023-08-20T07:18:20;31.40;47.30
11140;DHT22;5624;49.388;11.350;2023-08-20T07:20:45;31.80;47.10
11140;DHT22;5624;49.388;11.350;2023-08-20T07:23:11;31.90;46.90
11140;DHT22;5624;49.388;11.350;2023-08-20T07:25:37;32.20;44.50
11140;DHT22;5624;49.388;11.350;2023-08-20T07:28:07;32.20;44.70
11140;DHT22;5624;49.388;11.350;2023-08-20T07:30:34;32.60;44.30
11140;DHT22;5624;49.388;11.350;2023-08-20T07:32:59;32.30;45.10
11140;DHT22;5624;49.388;11.350;2023-08-20T07:35:25;32.80;46.00
11140;DHT22;5624;49.388;11.350;2023-08-20T07:37:51;33.00;43.80
11140;DHT22;5624;49.388;11.350;2023-08-20T07:40:16;33.10;43.80
11140;DHT22;5624;49.388;11.350;2023-08-20T07:42:42;33.60;44.40
11140;DHT22;5624;49.388;11.350;2023-08-20T07:45:09;33.60;42.30
11140;DHT22;5624;49.388;11.350;2023-08-20T07:47:36;33.80;42.60
11140;DHT22;5624;49.388;11.350;2023-08-20T07:50:02;34.20;42.10
11140;DHT22;5624;49.388;11.350;2023-08-20T07:52:27;34.50;41.40
11140;DHT22;5624;49.388;11.350;2023-08-20T07:54:53;34.70;40.20
11140;DHT22;5624;49.388;11.350;2023-08-20T07:57:19;35.10;40.70
11140;DHT22;5624;49.388;11.350;2023-08-20T07:59:44;35.40;42.40
11140;DHT22;5624;49.388;11.350;2023-08-20T08:02:10;35.70;42.20
11140;DHT22;5624;49.388;11.350;2023-08-20T08:04:36;35.80;40.00
11140;DHT22;5624;49.388;11.350;2023-08-20T08:07:01;36.00;42.60
11140;DHT22;5624;49.388;11.350;2023-08-20T08:09:29;36.10;39.70
11140;DHT22;5624;49.388;11.350;2023-08-20T08:11:55;36.50;38.50
11140;DHT22;5624;49.388;11.350;2023-08-20T08:14:21;36.10;36.60
11140;DHT22;5624;49.388;11.350;2023-08-20T08:16:47;35.60;41.30
11140;DHT22;5624;49.388;11.350;2023-08-20T08:19:12;36.20;40.00
11140;DHT22;5624;49.388;11.350;2023-08-20T08:21:38;36.60;38.10
11140;DHT22;5624;49.388;11.350;2023-08-20T08:24:04;36.80;37.20
11140;DHT22;5624;49.388;11.350;2023-08-20T08:26:31;36.80;37.10
11140;DHT22;5624;49.388;11.350;2023-08-20T08:28:56;36.90;35.00
11140;DHT22;5624;49.388;11.350;2023-08-20T08:31:22;36.80;35.60
11140;DHT22;5624;49.388;11.350;2023-08-20T08:33:48;36.80;35.90
11140;DHT22;5624;49.388;11.350;2023-08-20T08:36:13;37.00;40.00
11140;DHT22;5624;49.388;11.350;2023-08-20T08:38:41;37.10;37.90
11140;DHT22;5624;49.388;11.350;2023-08-20T08:41:11;37.30;36.10
11140;DHT22;5624;49.388;11.350;2023-08-20T08:43:38;37.30;36.90
11140;DHT22;5624;49.388;11.350;2023-08-20T08:46:06;37.30;39.10
11140;DHT22;5624;49.388;11.350;2023-08-20T08:48:34;37.20;40.30
11140;DHT22;5624;49.388;11.350;2023-08-20T08:51:01;37.20;38.80
11140;DHT22;5624;49.388;11.350;2023-08-20T08:53:27;37.30;39.20
11140;DHT22;5624;49.388;11.350;2023-08-20T08:55:53;37.40;37.70
11140;DHT22;5624;49.388;11.350;2023-08-20T08:58:19;37.10;37.80
11140;DHT22;5624;49.388;11.350;2023-08-20T09:00:44;37.00;38.20
11140;DHT22;5624;49.388;11.350;2023-08-20T09:03:10;35.70;39.40
11140;DHT22;5624;49.388;11.350;2023-08-20T09:05:57;36.10;39.40
11140;DHT22;5624;49.388;11.350;2023-08-20T09:08:30;36.70;37.70
11140;DHT22;5624;49.388;11.350;2023-08-20T09:10:59;36.50;36.90
11140;DHT22;5624;49.388;11.350;2023-08-20T09:13:36;36.30;34.00
11140;DHT22;5624;49.388;11.350;2023-08-20T09:16:09;36.30;40.40
11140;DHT22;5624;49.388;11.350;2023-08-20T09:18:43;36.50;36.00
11140;DHT22;5624;49.388;11.350;2023-08-20T09:21:11;36.90;40.30
11140;DHT22;5624;49.388;11.350;2023-08-20T09:23:37;37.10;35.50
11140;DHT22;5624;49.388;11.350;2023-08-20T09:26:05;36.90;38.50
11140;DHT22;5624;49.388;11.350;2023-08-20T09:28:42;37.00;36.00
11140;DHT22;5624;49.388;11.350;2023-08-20T09:31:07;36.80;31.30
11140;DHT22;5624;49.388;11.350;2023-08-20T09:33:33;36.70;34.10
11140;DHT22;5624;49.388;11.350;2023-08-20T09:35:58;36.80;37.00
11140;DHT22;5624;49.388;11.350;2023-08-20T09:38:24;36.80;38.20
11140;DHT22;5624;49.388;11.350;2023-08-20T09:40:52;36.90;37.10
11140;DHT22;5624;49.388;11.350;2023-08-20T09:43:19;36.60;38.40
11140;DHT22;5624;49.388;11.350;2023-08-20T09:45:46;36.80;35.90
11140;DHT22;5624;49.388;11.350;2023-08-20T09:48:18;37.10;37.50
11140;DHT22;5624;49.388;11.350;2023-08-20T09:50:47;37.30;38.30
11140;DHT22;5624;49.388;11.350;2023-08-20T09:53:26;36.70;36.60
11140;DHT22;5624;49.388;11.350;2023-08-20T09:55:52;36.70;41.70
11140;DHT22;5624;49.388;11.350;2023-08-20T09:58:21;37.20;35.50
11140;DHT22;5624;49.388;11.350;2023-08-20T10:00:51;37.30;38.00
11140;DHT22;5624;49.388;11.350;2023-08-20T10:03:18;37.10;37.20
11140;DHT22;5624;49.388;11.350;2023-08-20T10:05:46;37.00;33.90
11140;DHT22;5624;49.388;11.350;2023-08-20T10:08:12;36.70;33.10
11140;DHT22;5624;49.388;11.350;2023-08-20T10:10:38;36.00;34.10
11140;DHT22;5624;49.388;11.350;2023-08-20T10:13:04;36.00;37.90
11140;DHT22;5624;49.388;11.350;2023-08-20T10:15:29;36.20;37.90
11140;DHT22;5624;49.388;11.350;2023-08-20T10:17:57;36.40;39.70
11140;DHT22;5624;49.388;11.350;2023-08-20T10:20:23;36.80;37.70
11140;DHT22;5624;49.388;11.350;2023-08-20T10:22:50;36.90;36.20
11140;DHT22;5624;49.388;11.350;2023-08-20T10:25:26;36.60;37.90
11140;DHT22;5624;49.388;11.350;2023-08-20T10:27:53;36.40;33.30
11140;DHT22;5624;49.388;11.350;2023-08-20T10:30:22;36.30;37.10
11140;DHT22;5624;49.388;11.350;2023-08-20T10:32:51;36.50;34.60
11140;DHT22;5624;49.388;11.350;2023-08-20T10:35:27;36.60;33.60
11140;DHT22;5624;49.388;11.350;2023-08-20T10:40:51;36.60;36.80
11140;DHT22;5624;49.388;11.350;2023-08-20T10:43:48;36.90;39.00
11140;DHT22;5624;49.388;11.350;2023-08-20T10:46:16;36.60;36.70
11140;DHT22;5624;49.388;11.350;2023-08-20T10:48:46;36.20;33.90
11140;DHT22;5624;49.388;11.350;2023-08-20T10:51:24;36.00;36.20
11140;DHT22;5624;49.388;11.350;2023-08-20T10:56:44;35.80;39.00
11140;DHT22;5624;49.388;11.350;2023-08-20T10:59:30;35.80;38.40
11140;DHT22;5624;49.388;11.350;2023-08-20T11:01:57;36.10;37.30
11140;DHT22;5624;49.388;11.350;2023-08-20T11:04:25;36.20;34.90
11140;DHT22;5624;49.388;11.350;2023-08-20T11:06:54;36.50;36.60
11140;DHT22;5624;49.388;11.350;2023-08-20T11:09:25;36.70;36.30
11140;DHT22;5624;49.388;11.350;2023-08-20T11:11:51;36.60;37.10
11140;DHT22;5624;49.388;11.350;2023-08-20T11:14:18;36.70;36.40
11140;DHT22;5624;49.388;11.350;2023-08-20T11:16:45;36.60;38.40
11140;DHT22;5624;49.388;11.350;2023-08-20T11:19:14;36.30;34.00
11140;DHT22;5624;49.388;11.350;2023-08-20T11:21:44;35.90;34.80
11140;DHT22;5624;49.388;11.350;2023-08-20T11:24:10;36.40;38.40
11140;DHT22;5624;49.388;11.350;2023-08-20T11:26:38;36.40;35.10
11140;DHT22;5624;49.388;11.350;2023-08-20T11:29:08;36.50;37.60
11140;DHT22;5624;49.388;11.350;2023-08-20T11:31:35;36.50;38.30
11140;DHT22;5624;49.388;11.350;2023-08-20T11:34:04;36.80;38.90
11140;DHT22;5624;49.388;11.350;2023-08-20T11:36:30;36.70;37.10
11140;DHT22;5624;49.388;11.350;2023-08-20T11:38:56;36.50;38.30
11140;DHT22;5624;49.388;11.350;2023-08-20T11:41:23;36.40;38.70
11140;DHT22;5624;49.388;11.350;2023-08-20T11:43:50;36.20;37.40
11140;DHT22;5624;49.388;11.350;2023-08-20T11:46:18;36.30;38.40
11140;DHT22;5624;49.388;11.350;2023-08-20T11:49:07;36.00;36.50
11140;DHT22;5624;49.388;11.350;2023-08-20T11:54:01;35.80;37.30
11140;DHT22;5624;49.388;11.350;2023-08-20T11:56:27;35.70;40.00
11140;DHT22;5624;49.388;11.350;2023-08-20T11:59:00;35.70;39.00
11140;DHT22;5624;49.388;11.350;2023-08-20T12:01:29;35.60;42.10
11140;DHT22;5624;49.388;11.350;2023-08-20T12:04:00;35.80;36.30
11140;DHT22;5624;49.388;11.350;2023-08-20T12:06:26;36.30;38.10
11140;DHT22;5624;49.388;11.350;2023-08-20T12:08:55;36.30;38.00
11140;DHT22;5624;49.388;11.350;2023-08-20T12:11:28;36.10;35.30
11140;DHT22;5624;49.388;11.350;2023-08-20T12:13:54;35.70;37.50
11140;DHT22;5624;49.388;11.350;2023-08-20T12:16:24;35.60;37.20
11140;DHT22;5624;49.388;11.350;2023-08-20T12:18:51;35.60;38.20
11140;DHT22;5624;49.388;11.350;2023-08-20T12:21:16;35.50;38.40
11140;DHT22;5624;49.388;11.350;2023-08-20T12:23:42;35.50;38.00
11140;DHT22;5624;49.388;11.350;2023-08-20T12:26:07;35.40;36.40
11140;DHT22;5624;49.388;11.350;2023-08-20T12:28:34;35.30;36.10
11140;DHT22;5624;49.388;11.350;2023-08-20T12:30:59;35.00;34.80
11140;DHT22;5624;49.388;11.350;2023-08-20T12:33:25;34.90;36.30
11140;DHT22;5624;49.388;11.350;2023-08-20T12:35:54;34.90;39.30
11140;DHT22;5624;49.388;11.350;2023-08-20T12:38:19;34.60;37.70
11140;DHT22;5624;49.388;11.350;2023-08-20T12:40:45;34.90;39.10
11140;DHT22;5624;49.388;11.350;2023-08-20T12:43:11;34.80;38.50
11140;DHT22;5624;49.388;11.350;2023-08-20T12:45:36;34.80;40.10
11140;DHT22;5624;49.388;11.350;2023-08-20T12:48:03;34.60;38.40
11140;DHT22;5624;49.388;11.350;2023-08-20T12:50:29;34.30;39.10
11140;DHT22;5624;49.388;11.350;2023-08-20T12:52:54;34.40;40.00
11140;DHT22;5624;49.388;11.350;2023-08-20T12:55:20;34.40;38.50
11140;DHT22;5624;49.388;11.350;2023-08-20T12:57:58;34.40;38.00
11140;DHT22;5624;49.388;11.350;2023-08-20T13:00:25;34.40;39.80
11140;DHT22;5624;49.388;11.350;2023-08-20T13:02:54;34.40;38.20
11140;DHT22;5624;49.388;11.350;2023-08-20T13:05:21;34.30;40.50
11140;DHT22;5624;49.388;11.350;2023-08-20T13:07:47;34.40;39.80
11140;DHT22;5624;49.388;11.350;2023-08-20T13:10:13;34.40;40.80
11140;DHT22;5624;49.388;11.350;2023-08-20T13:12:41;34.40;37.30
11140;DHT22;5624;49.388;11.350;2023-08-20T13:15:17;34.30;39.60
11140;DHT22;5624;49.388;11.350;2023-08-20T13:17:45;34.20;38.90
11140;DHT22;5624;49.388;11.350;2023-08-20T13:20:11;34.10;39.80
11140;DHT22;5624;49.388;11.350;2023-08-20T13:22:36;34.00;40.20
11140;DHT22;5624;49.388;11.350;2023-08-20T13:25:02;33.80;42.10
11140;DHT22;5624;49.388;11.350;2023-08-20T13:27:29;33.50;40.90
11140;DHT22;5624;49.388;11.350;2023-08-20T13:29:55;33.40;39.40
11140;DHT22;5624;49.388;11.350;2023-08-20T13:32:21;33.30;37.70
11140;DHT22;5624;49.388;11.350;2023-08-20T13:34:46;33.40;41.30
11140;DHT22;5624;49.388;11.350;2023-08-20T13:37:15;33.40;41.50
11140;DHT22;5624;49.388;11.350;2023-08-20T13:39:41;33.40;40.50
11140;DHT22;5624;49.388;11.350;2023-08-20T13:42:06;33.40;38.00
11140;DHT22;5624;49.388;11.350;2023-08-20T13:44:32;33.40;40.20
11140;DHT22;5624;49.388;11.350;2023-08-20T13:46:58;33.40;41.30
11140;DHT22;5624;49.388;11.350;2023-08-20T13:49:24;33.20;41.30
11140;DHT22;5624;49.388;11.350;2023-08-20T13:51:50;33.20;38.20
11140;DHT22;5624;49.388;11.350;2023-08-20T13:54:16;33.10;39.70
11140;DHT22;5624;49.388;11.350;2023-08-20T13:56:41;33.20;37.70
11140;DHT22;5624;49.388;11.350;2023-08-20T13:59:09;33.00;38.00
11140;DHT22;5624;49.388;11.350;2023-08-20T14:01:35;33.00;42.00
11140;DHT22;5624;49.388;11.350;2023-08-20T14:04:00;33.00;41.80
11140;DHT22;5624;49.388;11.350;2023-08-20T14:06:26;33.10;40.70
11140;DHT22;5624;49.388;11.350;2023-08-20T14:08:51;33.00;39.50
11140;DHT22;5624;49.388;11.350;2023-08-20T14:11:17;33.10;40.90
11140;DHT22;5624;49.388;11.350;2023-08-20T14:13:42;33.10;42.10
11140;DHT22;5624;49.388;11.350;2023-08-20T14:16:08;33.00;40.10
11140;DHT22;5624;49.388;11.350;2023-08-20T14:18:33;32.90;40.30
11140;DHT22;5624;49.388;11.350;2023-08-20T14:20:59;32.80;39.50
11140;DHT22;5624;49.388;11.350;2023-08-20T14:23:25;32.80;40.00
11140;DHT22;5624;49.388;11.350;2023-08-20T14:25:50;32.70;39.30
11140;DHT22;5624;49.388;11.350;2023-08-20T14:28:16;32.70;40.20
11140;DHT22;5624;49.388;11.350;2023-08-20T14:30:41;32.70;40.50
11140;DHT22;5624;49.388;11.350;2023-08-20T14:33:07;32.60;40.40
11140;DHT22;5624;49.388;11.350;2023-08-20T14:35:33;32.60;40.90
11140;DHT22;5624;49.388;11.350;2023-08-20T14:37:58;32.60;41.40
11140;DHT22;5624;49.388;11.350;2023-08-20T14:40:24;32.50;38.10
11140;DHT22;5624;49.388;11.350;2023-08-20T14:42:50;32.50;40.80
11140;DHT22;5624;49.388;11.350;2023-08-20T14:45:16;32.30;39.30
11140;DHT22;5624;49.388;11.350;2023-08-20T14:47:41;32.20;39.90
11140;DHT22;5624;49.388;11.350;2023-08-20T14:50:07;32.20;41.20
11140;DHT22;5624;49.388;11.350;2023-08-20T14:52:34;32.20;41.90
11140;DHT22;5624;49.388;11.350;2023-08-20T14:55:00;32.10;40.50
11140;DHT22;5624;49.388;11.350;2023-08-20T14:57:26;32.10;40.60
11140;DHT22;5624;49.388;11.350;2023-08-20T14:59:51;32.00;39.20
11140;DHT22;5624;49.388;11.350;2023-08-20T15:02:17;32.00;42.00
11140;DHT22;5624;49.388;11.350;2023-08-20T15:04:43;31.90;41.50
11140;DHT22;5624;49.388;11.350;2023-08-20T15:07:08;31.60;43.10
11140;DHT22;5624;49.388;11.350;2023-08-20T15:09:34;31.40;40.60
11140;DHT22;5624;49.388;11.350;2023-08-20T15:12:01;31.40;42.50
11140;DHT22;5624;49.388;11.350;2023-08-20T15:14:27;31.40;42.10
11140;DHT22;5624;49.388;11.350;2023-08-20T15:16:52;31.30;41.90
11140;DHT22;5624;49.388;11.350;2023-08-20T15:19:18;31.30;43.50
11140;DHT22;5624;49.388;11.350;2023-08-20T15:21:43;31.30;42.50
11140;DHT22;5624;49.388;11.350;2023-08-20T15:24:09;31.30;42.20
11140;DHT22;5624;49.388;11.350;2023-08-20T15:26:35;31.30;44.00
11140;DHT22;5624;49.388;11.350;2023-08-20T15:29:00;31.30;41.50
11140;DHT22;5624;49.388;11.350;2023-08-20T15:31:26;31.30;42.10
11140;DHT22;5624;49.388;11.350;2023-08-20T15:33:53;31.20;41.60
11140;DHT22;5624;49.388;11.350;2023-08-20T15:36:19;31.30;42.50
11140;DHT22;5624;49.388;11.350;2023-08-20T15:38:45;31.30;42.80
11140;DHT22;5624;49.388;11.350;2023-08-20T15:41:10;31.30;42.80
11140;DHT22;5624;49.388;11.350;2023-08-20T15:43:36;31.30;43.60
11140;DHT22;5624;49.388;11.350;2023-08-20T15:46:01;31.20;42.00